createdAt,value
2018-11-20T00:03:19.487Z,7.50
2018-11-20T00:09:14.392Z,7.87
2018-11-20T00:14:39.898Z,8.63
2018-11-20T00:20:34.932Z,7.17
2018-11-20T00:32:19.399Z,8.67
2018-11-20T00:38:15.201Z,8.23
2018-11-20T00:44:13.136Z,10.27
2018-11-20T00:50:06.003Z,8.80
2018-11-20T00:56:01.670Z,11.73
2018-11-20T01:01:57.358Z,10.77
2018-11-20T01:07:51.228Z,11.23
2018-11-20T01:13:53.971Z,11.47
2018-11-20T01:19:49.646Z,13.30
2018-11-20T01:25:45.445Z,12.93
2018-11-20T01:31:31.285Z,12.40
2018-11-20T01:37:26.150Z,12.47
2018-11-20T01:43:21.864Z,12.90
2018-11-20T01:49:16.770Z,12.53
2018-11-20T01:55:05.262Z,14.60
2018-11-20T02:01:06.680Z,14.07
2018-11-20T02:07:01.589Z,17.10
2018-11-20T02:12:57.251Z,12.50
2018-11-20T02:18:52.135Z,13.77
2018-11-20T02:30:42.771Z,14.87
2018-11-20T02:36:37.815Z,14.77
2018-11-20T02:42:33.533Z,13.23
2018-11-20T02:54:26.909Z,13.20
2018-11-20T03:00:28.168Z,14.27
2018-11-20T03:06:23.061Z,13.00
2018-11-20T03:12:18.508Z,14.10
2018-11-20T03:18:13.464Z,14.97
2018-11-20T03:23:49.249Z,14.30
2018-11-20T03:29:44.748Z,13.80
2018-11-20T03:35:36.188Z,14.47
2018-11-20T03:41:25.362Z,13.47
2018-11-20T03:47:10.737Z,12.37
2018-11-20T03:52:59.578Z,15.50
2018-11-20T03:58:54.631Z,13.43
2018-11-20T04:04:52.395Z,14.43
2018-11-20T04:10:48.058Z,13.27
2018-11-20T04:16:43.054Z,13.33
2018-11-20T04:22:38.547Z,12.60
2018-11-20T04:28:34.357Z,14.83
2018-11-20T04:34:29.991Z,14.10
2018-11-20T04:40:28.753Z,12.07
2018-11-20T04:46:24.410Z,15.03
2018-11-20T04:52:10.677Z,14.37
2018-11-20T04:58:03.039Z,14.30
2018-11-20T05:03:57.938Z,14.87
2018-11-20T05:09:52.702Z,14.47
2018-11-20T05:15:47.737Z,12.57
2018-11-20T05:21:43.287Z,14.43
2018-11-20T05:33:29.767Z,13.37
2018-11-20T05:39:24.692Z,13.10
2018-11-20T05:45:20.478Z,15.77
2018-11-20T05:51:15.899Z,14.50
2018-11-20T05:57:14.380Z,12.47
2018-11-20T06:03:09.384Z,12.70
2018-11-20T06:08:37.695Z,14.37
2018-11-20T06:14:32.820Z,13.10
2018-11-20T06:20:28.335Z,14.07
2018-11-20T06:26:23.306Z,13.57
2018-11-20T06:32:18.074Z,13.87
2018-11-20T06:38:16.092Z,13.97
2018-11-20T06:44:11.857Z,13.10
2018-11-20T06:50:07.093Z,11.70
2018-11-20T06:56:41.178Z,13.97
2018-11-20T07:02:38.865Z,13.57
2018-11-20T07:08:28.119Z,16.10
2018-11-20T07:14:20.031Z,14.37
2018-11-20T07:20:15.427Z,15.43
2018-11-20T07:26:16.859Z,14.33
2018-11-20T07:31:59.773Z,13.17
2018-11-20T07:38:02.412Z,15.73
2018-11-20T07:43:57.764Z,13.63
2018-11-20T07:49:46.652Z,14.50
2018-11-20T07:55:42.330Z,14.00
2018-11-20T08:01:37.978Z,15.13
2018-11-20T08:07:36.463Z,16.00
2018-11-20T08:13:31.679Z,14.90
2018-11-20T08:19:27.458Z,14.27
2018-11-20T08:31:10.243Z,15.10
2018-11-20T08:37:03.366Z,13.83
2018-11-20T08:42:58.831Z,15.63
2018-11-20T08:48:53.793Z,14.33
2018-11-20T08:54:48.863Z,15.63
2018-11-20T09:00:35.126Z,14.20
2018-11-20T09:06:22.668Z,14.93
2018-11-20T09:12:17.727Z,16.43
2018-11-20T09:18:12.834Z,15.00
2018-11-20T09:24:08.005Z,14.00
2018-11-20T09:30:03.192Z,15.13
2018-11-20T09:36:00.985Z,13.87
2018-11-20T09:41:48.477Z,14.23
2018-11-20T09:47:45.176Z,15.23
2018-11-20T09:53:43.601Z,15.50
2018-11-20T09:59:39.309Z,14.73
2018-11-20T10:05:34.917Z,15.63
2018-11-20T10:11:29.729Z,15.10
2018-11-20T10:17:25.083Z,14.70
2018-11-20T10:23:20.130Z,14.70
2018-11-20T10:29:07.353Z,15.73
2018-11-20T10:35:05.134Z,15.70
2018-11-20T10:41:00.175Z,12.30
2018-11-20T10:46:56.323Z,13.50
2018-11-20T10:52:54.459Z,13.67
2018-11-20T10:58:49.842Z,14.47
2018-11-20T11:04:44.913Z,13.80
2018-11-20T11:10:10.396Z,15.87
2018-11-20T11:16:05.757Z,15.47
2018-11-20T11:22:01.354Z,13.73
2018-11-20T11:27:51.950Z,13.73
2018-11-20T11:33:50.033Z,15.47
2018-11-20T11:45:18.110Z,14.80
2018-11-20T11:51:13.189Z,15.03
2018-11-20T11:57:08.842Z,15.40
2018-11-20T12:08:48.259Z,15.60
2018-11-20T12:14:43.144Z,15.27
2018-11-20T12:20:39.034Z,15.43
2018-11-20T12:26:36.160Z,15.17
2018-11-20T12:32:31.854Z,13.33
2018-11-20T12:38:27.073Z,14.77
2018-11-20T12:44:22.390Z,16.30
2018-11-20T12:50:18.719Z,15.57
2018-11-20T12:56:14.043Z,15.83
2018-11-20T13:02:08.758Z,14.63
2018-11-20T13:07:56.659Z,18.27
2018-11-20T13:13:52.470Z,15.87
2018-11-20T13:19:50.283Z,17.33
2018-11-20T13:25:45.712Z,18.57
2018-11-20T13:31:37.823Z,16.13
2018-11-20T13:37:33.786Z,17.63
2018-11-20T13:42:58.363Z,16.87
2018-11-20T13:48:52.573Z,16.77
2018-11-20T13:54:53.592Z,17.50
2018-11-20T14:00:55.151Z,13.63
2018-11-20T14:06:50.053Z,14.90
2018-11-20T14:12:25.119Z,17.43
2018-11-20T14:18:00.851Z,16.47
2018-11-20T14:23:36.226Z,17.97
2018-11-20T14:29:11.658Z,16.33
2018-11-20T14:34:46.874Z,17.13
2018-11-20T14:40:22.421Z,16.63
2018-11-20T14:45:48.445Z,17.67
2018-11-20T14:51:16.928Z,18.03
2018-11-20T14:56:51.981Z,18.40
2018-11-20T15:02:27.603Z,17.83
2018-11-20T15:08:02.723Z,17.87
2018-11-20T15:13:57.517Z,17.20
2018-11-20T15:19:53.665Z,17.53
2018-11-20T15:25:55.022Z,15.80
2018-11-20T15:31:30.800Z,15.70
2018-11-20T15:37:26.623Z,15.33
2018-11-20T15:43:21.773Z,14.67
2018-11-20T15:49:19.932Z,12.83
2018-11-20T15:55:15.281Z,13.77
2018-11-20T16:00:51.465Z,13.93
2018-11-20T16:06:27.126Z,13.50
2018-11-20T16:17:50.155Z,12.00
2018-11-20T16:23:40.666Z,11.90
2018-11-20T16:29:38.982Z,11.80
2018-11-20T16:35:37.693Z,10.90
2018-11-20T16:41:42.188Z,10.43
2018-11-20T16:47:27.953Z,10.60
2018-11-20T16:53:24.151Z,11.40
2018-11-20T16:59:10.815Z,11.10
2018-11-20T17:05:05.735Z,11.30
2018-11-20T17:10:58.904Z,11.50
2018-11-20T17:16:55.420Z,11.70
2018-11-20T17:22:50.470Z,11.67
2018-11-20T17:28:46.181Z,11.13
2018-11-20T17:34:42.253Z,13.53
2018-11-20T17:40:39.324Z,11.57
2018-11-20T17:46:34.303Z,11.27
2018-11-20T17:52:17.194Z,11.60
2018-11-20T17:58:19.559Z,11.97
2018-11-20T18:04:11.483Z,9.93
2018-11-20T18:10:06.891Z,10.83
2018-11-20T18:16:02.221Z,9.63
2018-11-20T18:21:50.473Z,14.00
2018-11-20T18:27:45.904Z,13.27
2018-11-20T18:33:21.563Z,13.10
2018-11-20T18:38:56.576Z,11.30
2018-11-20T18:44:32.535Z,14.27
2018-11-20T18:50:27.496Z,12.80
2018-11-20T18:56:23.453Z,12.60
2018-11-20T19:02:19.011Z,10.63
2018-11-20T19:08:14.776Z,12.07
2018-11-20T19:13:59.885Z,13.23
2018-11-20T19:20:08.324Z,11.80
2018-11-20T19:25:48.910Z,13.00
2018-11-20T19:31:48.508Z,13.00
2018-11-20T19:37:39.053Z,10.37
2018-11-20T19:43:37.244Z,11.63
2018-11-20T19:49:06.358Z,10.40
2018-11-20T19:54:44.282Z,11.07
2018-11-20T20:00:39.773Z,10.50
2018-11-20T20:06:56.192Z,10.20
2018-11-20T20:12:36.483Z,7.90
2018-11-20T20:18:31.321Z,8.97
2018-11-20T20:30:55.506Z,9.07
2018-11-20T20:36:50.568Z,10.80
2018-11-20T20:42:46.483Z,11.70
2018-11-20T20:48:30.408Z,10.17
2018-11-20T20:54:25.435Z,10.37
2018-11-20T21:00:20.670Z,10.33
2018-11-20T21:06:16.110Z,10.07
2018-11-20T21:12:11.031Z,10.63
2018-11-20T21:18:06.168Z,11.17
2018-11-20T21:24:01.963Z,9.63
2018-11-20T21:30:00.309Z,9.70
2018-11-20T21:35:56.005Z,10.00
2018-11-20T21:41:51.888Z,9.87
2018-11-20T21:47:47.479Z,13.07
2018-11-20T21:53:46.334Z,10.73
2018-11-20T21:59:22.649Z,10.20
2018-11-20T22:04:57.709Z,12.03
2018-11-20T22:10:31.450Z,8.97
2018-11-20T22:16:26.233Z,11.67
2018-11-20T22:22:21.302Z,11.30
2018-11-20T22:27:56.516Z,10.07
2018-11-20T22:33:39.074Z,12.40
2018-11-20T22:39:34.683Z,13.60
2018-11-20T22:45:10.041Z,12.73
2018-11-20T22:50:40.138Z,13.27
2018-11-20T22:56:16.204Z,12.70
2018-11-20T23:02:05.570Z,10.40
2018-11-20T23:07:49.505Z,10.80
2018-11-20T23:13:25.736Z,10.50
2018-11-20T23:19:01.580Z,11.40
2018-11-20T23:24:37.377Z,13.43
2018-11-20T23:30:14.891Z,12.37
2018-11-20T23:35:50.785Z,15.83
2018-11-20T23:41:26.489Z,15.33
2018-11-20T23:47:02.351Z,15.63
2018-11-20T23:52:39.007Z,17.03
2018-11-20T23:57:55.001Z,17.50
